sensor_id;sensor_type;location;lat;lon;timestamp;pressure;altitude;pressure_sealevel;temperature;humidity
8637;BME280;4356;49.068;8.658;2023-08-12T00:01:16;100088.88;;;27.62;42.09
8637;BME280;4356;49.068;8.658;2023-08-12T00:03:42;100071.50;;;27.52;42.07
8637;BME280;4356;49.068;8.658;2023-08-12T00:06:07;100074.81;;;27.54;42.15
8637;BME280;4356;49.068;8.658;2023-08-12T00:08:33;100063.22;;;27.47;42.24
8637;BME280;4356;49.068;8.658;2023-08-12T00:10:58;100072.31;;;27.52;42.33
8637;BME280;4356;49.068;8.658;2023-08-12T00:13:24;100068.75;;;27.52;42.45
8637;BME280;4356;49.068;8.658;2023-08-12T00:15:49;100075.63;;;27.54;42.24
8637;BME280;4356;49.068;8.658;2023-08-12T00:18:15;100054.41;;;27.45;42.47
8637;BME280;4356;49.068;8.658;2023-08-12T00:20:43;100065.97;;;27.52;42.42
8637;BME280;4356;49.068;8.658;2023-08-12T00:23:08;100045.84;;;27.41;42.43
8637;BME280;4356;49.068;8.658;2023-08-12T00:25:34;100067.06;;;27.51;42.33
8637;BME280;4356;49.068;8.658;2023-08-12T00:27:59;100038.38;;;27.36;42.39
8637;BME280;4356;49.068;8.658;2023-08-12T00:30:24;100065.72;;;27.48;42.44
8637;BME280;4356;49.068;8.658;2023-08-12T00:32:50;100046.38;;;27.38;42.42
8637;BME280;4356;49.068;8.658;2023-08-12T00:35:15;100061.84;;;27.44;42.56
8637;BME280;4356;49.068;8.658;2023-08-12T00:37:41;100040.59;;;27.34;42.56
8637;BME280;4356;49.068;8.658;2023-08-12T00:40:07;100063.75;;;27.49;42.49
8637;BME280;4356;49.068;8.658;2023-08-12T00:42:32;100059.66;;;27.41;42.38
8637;BME280;4356;49.068;8.658;2023-08-12T00:44:58;100030.09;;;27.26;42.48
8637;BME280;4356;49.068;8.658;2023-08-12T00:47:24;100035.31;;;27.28;42.44
8637;BME280;4356;49.068;8.658;2023-08-12T00:49:50;100032.28;;;27.29;42.58
8637;BME280;4356;49.068;8.658;2023-08-12T00:52:17;100034.22;;;27.29;42.71
8637;BME280;4356;49.068;8.658;2023-08-12T00:54:43;100026.78;;;27.24;42.50
8637;BME280;4356;49.068;8.658;2023-08-12T00:57:08;100033.94;;;27.25;42.53
8637;BME280;4356;49.068;8.658;2023-08-12T00:59:35;100022.91;;;27.20;42.63
8637;BME280;4356;49.068;8.658;2023-08-12T01:02:02;100028.16;;;27.22;42.63
8637;BME280;4356;49.068;8.658;2023-08-12T01:04:29;100021.78;;;27.21;42.60
8637;BME280;4356;49.068;8.658;2023-08-12T01:06:54;100020.97;;;27.21;42.44
8637;BME280;4356;49.068;8.658;2023-08-12T01:09:23;100024.31;;;27.23;42.61
8637;BME280;4356;49.068;8.658;2023-08-12T01:11:54;100037.28;;;27.32;42.48
8637;BME280;4356;49.068;8.658;2023-08-12T01:15:15;100048.03;;;27.34;42.66
8637;BME280;4356;49.068;8.658;2023-08-12T01:17:14;100023.72;;;27.16;42.51
8637;BME280;4356;49.068;8.658;2023-08-12T01:19:44;100014.38;;;27.12;42.50
8637;BME280;4356;49.068;8.658;2023-08-12T01:22:12;100041.66;;;27.23;42.72
8637;BME280;4356;49.068;8.658;2023-08-12T01:24:38;100027.31;;;27.16;42.79
8637;BME280;4356;49.068;8.658;2023-08-12T01:27:05;100015.72;;;27.09;42.87
8637;BME280;4356;49.068;8.658;2023-08-12T01:29:38;100019.59;;;27.08;42.84
8637;BME280;4356;49.068;8.658;2023-08-12T01:32:16;100035.59;;;27.21;42.72
8637;BME280;4356;49.068;8.658;2023-08-12T01:34:48;100014.66;;;27.10;42.95
8637;BME280;4356;49.068;8.658;2023-08-12T01:37:23;100009.09;;;27.05;42.96
8637;BME280;4356;49.068;8.658;2023-08-12T01:39:49;100034.22;;;27.14;42.73
8637;BME280;4356;49.068;8.658;2023-08-12T01:42:18;100022.63;;;27.12;42.86
8637;BME280;4356;49.068;8.658;2023-08-12T01:44:45;100010.50;;;27.03;42.89
8637;BME280;4356;49.068;8.658;2023-08-12T01:47:11;100016.28;;;27.06;42.94
8637;BME280;4356;49.068;8.658;2023-08-12T01:49:36;100040.59;;;27.19;42.75
8637;BME280;4356;49.068;8.658;2023-08-12T01:52:02;100027.34;;;27.06;43.07
8637;BME280;4356;49.068;8.658;2023-08-12T01:54:28;100019.59;;;27.03;42.76
8637;BME280;4356;49.068;8.658;2023-08-12T01:57:00;100016.56;;;27.00;42.78
8637;BME280;4356;49.068;8.658;2023-08-12T01:59:26;100044.16;;;27.15;42.92
8637;BME280;4356;49.068;8.658;2023-08-12T02:01:51;100027.84;;;27.03;42.78
8637;BME280;4356;49.068;8.658;2023-08-12T02:04:17;100023.19;;;26.99;42.98
8637;BME280;4356;49.068;8.658;2023-08-12T02:06:42;100025.38;;;27.02;42.79
8637;BME280;4356;49.068;8.658;2023-08-12T02:09:07;100014.63;;;26.95;42.78
8637;BME280;4356;49.068;8.658;2023-08-12T02:11:33;100036.41;;;27.07;42.91
8637;BME280;4356;49.068;8.658;2023-08-12T02:13:58;100024.56;;;26.96;42.67
8637;BME280;4356;49.068;8.658;2023-08-12T02:16:24;100035.06;;;27.04;42.97
8637;BME280;4356;49.068;8.658;2023-08-12T02:18:49;100022.06;;;26.95;42.83
8637;BME280;4356;49.068;8.658;2023-08-12T02:21:14;100037.81;;;26.99;42.80
8637;BME280;4356;49.068;8.658;2023-08-12T02:23:40;100023.19;;;26.94;42.86
8637;BME280;4356;49.068;8.658;2023-08-12T02:26:05;100019.03;;;26.91;42.99
8637;BME280;4356;49.068;8.658;2023-08-12T02:28:31;100045.81;;;27.06;43.17
8637;BME280;4356;49.068;8.658;2023-08-12T02:30:56;100040.81;;;26.98;42.97
8637;BME280;4356;49.068;8.658;2023-08-12T02:33:21;100035.84;;;27.00;42.74
8637;BME280;4356;49.068;8.658;2023-08-12T02:35:47;100021.25;;;26.84;42.83
8637;BME280;4356;49.068;8.658;2023-08-12T02:38:12;100027.59;;;26.95;43.17
8637;BME280;4356;49.068;8.658;2023-08-12T02:40:37;100038.34;;;26.96;42.86
8637;BME280;4356;49.068;8.658;2023-08-12T02:43:03;100025.66;;;26.90;42.99
8637;BME280;4356;49.068;8.658;2023-08-12T02:45:28;100017.41;;;26.90;42.70
8637;BME280;4356;49.068;8.658;2023-08-12T02:47:54;100024.28;;;26.98;42.98
8637;BME280;4356;49.068;8.658;2023-08-12T02:50:20;100025.94;;;26.94;43.21
8637;BME280;4356;49.068;8.658;2023-08-12T02:52:45;100015.16;;;26.82;42.99
8637;BME280;4356;49.068;8.658;2023-08-12T02:55:10;100033.94;;;26.95;43.24
8637;BME280;4356;49.068;8.658;2023-08-12T02:57:36;100020.41;;;26.79;43.31
8637;BME280;4356;49.068;8.658;2023-08-12T03:00:02;100015.44;;;26.76;43.20
8637;BME280;4356;49.068;8.658;2023-08-12T03:02:29;100029.22;;;26.86;43.42
8637;BME280;4356;49.068;8.658;2023-08-12T03:04:54;100018.47;;;26.84;43.20
8637;BME280;4356;49.068;8.658;2023-08-12T03:07:20;100006.63;;;26.79;43.29
8637;BME280;4356;49.068;8.658;2023-08-12T03:09:45;100013.50;;;26.76;43.42
8637;BME280;4356;49.068;8.658;2023-08-12T03:12:10;100017.38;;;26.85;43.45
8637;BME280;4356;49.068;8.658;2023-08-12T03:14:36;100007.44;;;26.84;43.60
8637;BME280;4356;49.068;8.658;2023-08-12T03:17:01;99992.56;;;26.75;43.54
8637;BME280;4356;49.068;8.658;2023-08-12T03:19:27;99997.50;;;26.78;43.48
8637;BME280;4356;49.068;8.658;2023-08-12T03:21:52;99992.28;;;26.72;43.34
8637;BME280;4356;49.068;8.658;2023-08-12T03:24:18;100008.81;;;26.82;43.46
8637;BME280;4356;49.068;8.658;2023-08-12T03:26:43;99995.03;;;26.72;43.57
8637;BME280;4356;49.068;8.658;2023-08-12T03:29:09;99991.72;;;26.70;43.45
8637;BME280;4356;49.068;8.658;2023-08-12T03:31:34;99988.13;;;26.69;43.26
8637;BME280;4356;49.068;8.658;2023-08-12T03:34:00;99992.56;;;26.70;43.69
8637;BME280;4356;49.068;8.658;2023-08-12T03:36:26;99996.97;;;26.81;43.58
8637;BME280;4356;49.068;8.658;2023-08-12T03:38:51;99977.09;;;26.69;43.41
8637;BME280;4356;49.068;8.658;2023-08-12T03:41:17;99968.53;;;26.71;43.66
8637;BME280;4356;49.068;8.658;2023-08-12T03:43:42;99982.09;;;26.77;43.52
8637;BME280;4356;49.068;8.658;2023-08-12T03:46:07;99981.81;;;26.74;43.62
8637;BME280;4356;49.068;8.658;2023-08-12T03:48:33;99992.28;;;26.77;43.31
8637;BME280;4356;49.068;8.658;2023-08-12T03:50:58;99986.72;;;26.67;43.43
8637;BME280;4356;49.068;8.658;2023-08-12T03:53:24;99993.91;;;26.73;43.47
8637;BME280;4356;49.068;8.658;2023-08-12T03:55:49;99993.59;;;26.64;43.51
8637;BME280;4356;49.068;8.658;2023-08-12T03:58:15;100025.09;;;26.78;43.37
8637;BME280;4356;49.068;8.658;2023-08-12T04:00:41;99996.38;;;26.64;43.40
8637;BME280;4356;49.068;8.658;2023-08-12T04:03:08;100015.69;;;26.74;43.35
8637;BME280;4356;49.068;8.658;2023-08-12T04:05:34;99998.84;;;26.66;43.04
8637;BME280;4356;49.068;8.658;2023-08-12T04:07:59;99977.63;;;26.61;43.55
8637;BME280;4356;49.068;8.658;2023-08-12T04:10:24;99976.22;;;26.64;43.58
8637;BME280;4356;49.068;8.658;2023-08-12T04:12:50;99975.44;;;26.63;43.45
8637;BME280;4356;49.068;8.658;2023-08-12T04:15:16;99993.63;;;26.69;43.73
8637;BME280;4356;49.068;8.658;2023-08-12T04:17:42;99990.00;;;26.59;43.54
8637;BME280;4356;49.068;8.658;2023-08-12T04:20:08;100011.28;;;26.73;43.35
8637;BME280;4356;49.068;8.658;2023-08-12T04:22:34;99994.16;;;26.66;43.62
8637;BME280;4356;49.068;8.658;2023-08-12T04:24:59;99989.44;;;26.57;43.52
8637;BME280;4356;49.068;8.658;2023-08-12T04:27:25;100001.59;;;26.61;43.69
8637;BME280;4356;49.068;8.658;2023-08-12T04:29:50;100010.72;;;26.66;43.49
8637;BME280;4356;49.068;8.658;2023-08-12T04:32:15;100000.19;;;26.58;43.37
8637;BME280;4356;49.068;8.658;2023-08-12T04:34:41;100000.75;;;26.55;43.57
8637;BME280;4356;49.068;8.658;2023-08-12T04:37:06;100020.34;;;26.64;43.58
8637;BME280;4356;49.068;8.658;2023-08-12T04:39:32;100005.44;;;26.55;43.53
8637;BME280;4356;49.068;8.658;2023-08-12T04:41:58;99988.34;;;26.53;43.41
8637;BME280;4356;49.068;8.658;2023-08-12T04:44:23;100002.44;;;26.61;43.60
8637;BME280;4356;49.068;8.658;2023-08-12T04:46:49;99984.22;;;26.50;43.77
8637;BME280;4356;49.068;8.658;2023-08-12T04:49:15;99988.59;;;26.46;43.49
8637;BME280;4356;49.068;8.658;2023-08-12T04:51:41;99996.06;;;26.51;43.71
8637;BME280;4356;49.068;8.658;2023-08-12T04:54:07;99992.22;;;26.52;43.73
8637;BME280;4356;49.068;8.658;2023-08-12T04:56:33;99991.13;;;26.58;43.79
8637;BME280;4356;49.068;8.658;2023-08-12T04:58:58;99971.53;;;26.49;43.71
8637;BME280;4356;49.068;8.658;2023-08-12T05:01:24;99973.47;;;26.49;44.06
8637;BME280;4356;49.068;8.658;2023-08-12T05:03:49;99980.06;;;26.48;44.01
8637;BME280;4356;49.068;8.658;2023-08-12T05:06:15;99991.38;;;26.56;43.71
8637;BME280;4356;49.068;8.658;2023-08-12T05:08:40;100004.91;;;26.63;43.87
8637;BME280;4356;49.068;8.658;2023-08-12T05:11:05;99989.72;;;26.55;43.78
8637;BME280;4356;49.068;8.658;2023-08-12T05:13:31;99983.94;;;26.52;43.99
8637;BME280;4356;49.068;8.658;2023-08-12T05:15:56;99986.41;;;26.48;43.69
8637;BME280;4356;49.068;8.658;2023-08-12T05:18:22;99983.66;;;26.43;44.01
8637;BME280;4356;49.068;8.658;2023-08-12T05:20:52;99974.56;;;26.42;44.10
8637;BME280;4356;49.068;8.658;2023-08-12T05:23:18;99981.19;;;26.47;43.98
8637;BME280;4356;49.068;8.658;2023-08-12T05:25:43;99979.22;;;26.47;43.90
8637;BME280;4356;49.068;8.658;2023-08-12T05:28:08;99990.28;;;26.57;43.75
8637;BME280;4356;49.068;8.658;2023-08-12T05:30:35;99970.97;;;26.42;43.81
8637;BME280;4356;49.068;8.658;2023-08-12T05:33:00;99994.44;;;26.60;44.21
8637;BME280;4356;49.068;8.658;2023-08-12T05:35:26;99989.72;;;26.55;43.80
8637;BME280;4356;49.068;8.658;2023-08-12T05:37:51;99988.94;;;26.60;43.82
8637;BME280;4356;49.068;8.658;2023-08-12T05:40:16;99964.09;;;26.44;43.83
8637;BME280;4356;49.068;8.658;2023-08-12T05:42:42;99990.00;;;26.54;44.07
8637;BME280;4356;49.068;8.658;2023-08-12T05:45:08;99977.88;;;26.44;43.81
8637;BME280;4356;49.068;8.658;2023-08-12T05:47:33;99975.66;;;26.47;43.91
8637;BME280;4356;49.068;8.658;2023-08-12T05:49:59;99994.97;;;26.57;44.04
8637;BME280;4356;49.068;8.658;2023-08-12T05:52:24;99986.13;;;26.44;44.26
8637;BME280;4356;49.068;8.658;2023-08-12T05:54:50;99994.41;;;26.50;44.12
8637;BME280;4356;49.068;8.658;2023-08-12T05:57:15;99990.25;;;26.47;44.10
8637;BME280;4356;49.068;8.658;2023-08-12T05:59:41;99983.38;;;26.44;44.11
8637;BME280;4356;49.068;8.658;2023-08-12T06:02:06;99984.22;;;26.45;44.06
8637;BME280;4356;49.068;8.658;2023-08-12T06:04:31;99999.63;;;26.51;44.11
8637;BME280;4356;49.068;8.658;2023-08-12T06:06:57;99999.34;;;26.42;43.95
8637;BME280;4356;49.068;8.658;2023-08-12T06:09:22;100000.75;;;26.45;44.29
8637;BME280;4356;49.068;8.658;2023-08-12T06:11:48;100000.19;;;26.43;43.79
8637;BME280;4356;49.068;8.658;2023-08-12T06:14:13;100005.16;;;26.51;43.89
8637;BME280;4356;49.068;8.658;2023-08-12T06:16:38;100010.94;;;26.55;44.10
8637;BME280;4356;49.068;8.658;2023-08-12T06:19:04;99990.25;;;26.42;44.04
8637;BME280;4356;49.068;8.658;2023-08-12T06:21:30;99998.00;;;26.45;44.08
8637;BME280;4356;49.068;8.658;2023-08-12T06:23:56;99993.00;;;26.42;43.87
8637;BME280;4356;49.068;8.658;2023-08-12T06:26:21;100003.78;;;26.49;43.65
8637;BME280;4356;49.068;8.658;2023-08-12T06:28:47;99998.00;;;26.45;44.00
8637;BME280;4356;49.068;8.658;2023-08-12T06:31:12;99993.00;;;26.47;44.02
8637;BME280;4356;49.068;8.658;2023-08-12T06:33:38;99997.72;;;26.52;43.71
8637;BME280;4356;49.068;8.658;2023-08-12T06:36:03;100016.50;;;26.65;43.97
8637;BME280;4356;49.068;8.658;2023-08-12T06:38:29;99985.06;;;26.51;44.12
8637;BME280;4356;49.068;8.658;2023-08-12T06:40:54;100009.88;;;26.61;44.19
8637;BME280;4356;49.068;8.658;2023-08-12T06:43:20;100004.34;;;26.61;44.20
8637;BME280;4356;49.068;8.658;2023-08-12T06:45:45;99999.41;;;26.63;43.88
8637;BME280;4356;49.068;8.658;2023-08-12T06:48:11;99994.16;;;26.61;43.69
8637;BME280;4356;49.068;8.658;2023-08-12T06:50:36;99978.72;;;26.55;43.87
8637;BME280;4356;49.068;8.658;2023-08-12T06:53:01;99996.09;;;26.66;43.80
8637;BME280;4356;49.068;8.658;2023-08-12T06:55:27;99998.34;;;26.74;43.89
8637;BME280;4356;49.068;8.658;2023-08-12T06:57:53;99991.13;;;26.63;43.79
8637;BME280;4356;49.068;8.658;2023-08-12T07:00:18;99994.44;;;26.65;43.91
8637;BME280;4356;49.068;8.658;2023-08-12T07:02:44;100010.19;;;26.74;43.90
8637;BME280;4356;49.068;8.658;2023-08-12T07:05:09;100003.84;;;26.69;43.88
8637;BME280;4356;49.068;8.658;2023-08-12T07:07:34;99994.47;;;26.70;43.59
8637;BME280;4356;49.068;8.658;2023-08-12T07:10:00;99990.00;;;26.64;43.36
8637;BME280;4356;49.068;8.658;2023-08-12T07:12:26;99981.75;;;26.64;43.58
8637;BME280;4356;49.068;8.658;2023-08-12T07:14:52;99988.66;;;26.66;43.18
8637;BME280;4356;49.068;8.658;2023-08-12T07:17:17;100014.34;;;26.77;43.01
8637;BME280;4356;49.068;8.658;2023-08-12T07:19:43;99988.13;;;26.69;43.12
8637;BME280;4356;49.068;8.658;2023-08-12T07:22:08;99994.75;;;26.73;43.38
8637;BME280;4356;49.068;8.658;2023-08-12T07:24:33;99998.34;;;26.69;43.08
8637;BME280;4356;49.068;8.658;2023-08-12T07:26:59;100000.53;;;26.77;43.27
8637;BME280;4356;49.068;8.658;2023-08-12T07:29:24;100007.16;;;26.81;43.12
8637;BME280;4356;49.068;8.658;2023-08-12T07:31:51;100002.75;;;26.75;43.05
8637;BME280;4356;49.068;8.658;2023-08-12T07:34:17;100024.56;;;26.86;42.85
8637;BME280;4356;49.068;8.658;2023-08-12T07:36:42;99998.91;;;26.76;42.88
8637;BME280;4356;49.068;8.658;2023-08-12T07:39:08;99996.16;;;26.76;43.10
8637;BME280;4356;49.068;8.658;2023-08-12T07:41:33;99986.75;;;26.77;43.08
8637;BME280;4356;49.068;8.658;2023-08-12T07:43:59;99984.28;;;26.75;43.16
8637;BME280;4356;49.068;8.658;2023-08-12T07:46:24;99992.56;;;26.80;42.94
8637;BME280;4356;49.068;8.658;2023-08-12T07:48:50;100009.66;;;26.92;43.25
8637;BME280;4356;49.068;8.658;2023-08-12T07:51:15;100009.13;;;26.95;43.06
8637;BME280;4356;49.068;8.658;2023-08-12T07:53:40;100006.34;;;27.00;43.33
8637;BME280;4356;49.068;8.658;2023-08-12T07:56:06;99984.56;;;26.89;43.21
8637;BME280;4356;49.068;8.658;2023-08-12T07:58:31;99991.72;;;26.95;43.24
8637;BME280;4356;49.068;8.658;2023-08-12T08:00:57;99998.06;;;27.00;43.06
8637;BME280;4356;49.068;8.658;2023-08-12T08:03:22;99991.47;;;27.01;42.98
8637;BME280;4356;49.068;8.658;2023-08-12T08:05:48;100003.88;;;27.09;43.06
8637;BME280;4356;49.068;8.658;2023-08-12T08:08:13;99987.88;;;27.01;43.09
8637;BME280;4356;49.068;8.658;2023-08-12T08:10:39;99969.66;;;26.95;43.39
8637;BME280;4356;49.068;8.658;2023-08-12T08:13:04;99984.28;;;27.05;43.32
8637;BME280;4356;49.068;8.658;2023-08-12T08:15:30;99990.91;;;27.09;43.24
8637;BME280;4356;49.068;8.658;2023-08-12T08:17:55;99990.63;;;27.11;43.11
8637;BME280;4356;49.068;8.658;2023-08-12T08:20:21;99972.44;;;27.10;43.31
8637;BME280;4356;49.068;8.658;2023-08-12T08:22:46;99980.41;;;27.16;43.10
8637;BME280;4356;49.068;8.658;2023-08-12T08:25:12;99955.59;;;27.06;43.23
8637;BME280;4356;49.068;8.658;2023-08-12T08:27:38;99968.81;;;27.14;42.87
8637;BME280;4356;49.068;8.658;2023-08-12T08:30:04;99956.72;;;27.10;42.97
8637;BME280;4356;49.068;8.658;2023-08-12T08:32:30;99986.47;;;27.23;43.02
8637;BME280;4356;49.068;8.658;2023-08-12T08:34:55;99980.41;;;27.16;42.97
8637;BME280;4356;49.068;8.658;2023-08-12T08:37:21;99979.88;;;27.19;42.90
8637;BME280;4356;49.068;8.658;2023-08-12T08:39:46;100001.94;;;27.34;43.04
8637;BME280;4356;49.068;8.658;2023-08-12T08:42:12;100001.94;;;27.39;43.08
8637;BME280;4356;49.068;8.658;2023-08-12T08:44:40;99979.03;;;27.29;42.91
8637;BME280;4356;49.068;8.658;2023-08-12T08:47:08;99967.19;;;27.28;42.85
8637;BME280;4356;49.068;8.658;2023-08-12T08:49:34;99968.56;;;27.31;42.86
8637;BME280;4356;49.068;8.658;2023-08-12T08:52:01;99990.91;;;27.45;42.91
8637;BME280;4356;49.068;8.658;2023-08-12T08:54:27;99976.28;;;27.39;43.12
8637;BME280;4356;49.068;8.658;2023-08-12T08:56:52;99986.72;;;27.52;43.11
8637;BME280;4356;49.068;8.658;2023-08-12T08:59:18;99972.69;;;27.43;43.20
8637;BME280;4356;49.068;8.658;2023-08-12T09:01:45;99981.50;;;27.51;43.28
8637;BME280;4356;49.068;8.658;2023-08-12T09:04:14;99977.34;;;27.58;43.12
8637;BME280;4356;49.068;8.658;2023-08-12T09:06:40;99965.22;;;27.59;42.95
8637;BME280;4356;49.068;8.658;2023-08-12T09:09:10;99966.84;;;27.60;42.46
8637;BME280;4356;49.068;8.658;2023-08-12T09:11:40;99989.44;;;27.72;42.54
8637;BME280;4356;49.068;8.658;2023-08-12T09:14:06;99992.22;;;27.77;42.74
8637;BME280;4356;49.068;8.658;2023-08-12T09:16:31;100005.13;;;27.87;42.60
8637;BME280;4356;49.068;8.658;2023-08-12T09:18:58;99966.81;;;27.75;42.47
8637;BME280;4356;49.068;8.658;2023-08-12T09:21:23;99974.75;;;27.87;42.24
8637;BME280;4356;49.068;8.658;2023-08-12T09:23:49;99972.28;;;27.85;42.03
8637;BME280;4356;49.068;8.658;2023-08-12T09:26:18;99974.50;;;27.93;42.27
8637;BME280;4356;49.068;8.658;2023-08-12T09:28:44;99966.47;;;27.92;42.25
8637;BME280;4356;49.068;8.658;2023-08-12T09:31:25;99957.94;;;27.93;42.35
8637;BME280;4356;49.068;8.658;2023-08-12T09:33:51;99981.03;;;28.12;41.71
8637;BME280;4356;49.068;8.658;2023-08-12T09:36:17;99954.81;;;28.05;42.02
8637;BME280;4356;49.068;8.658;2023-08-12T09:38:44;99961.16;;;28.15;42.01
8637;BME280;4356;49.068;8.658;2023-08-12T09:41:09;99960.56;;;28.18;42.11
8637;BME280;4356;49.068;8.658;2023-08-12T09:43:40;99946.78;;;28.13;42.34
8637;BME280;4356;49.068;8.658;2023-08-12T09:46:05;99954.22;;;28.18;42.25
8637;BME280;4356;49.068;8.658;2023-08-12T09:48:31;99943.44;;;28.16;42.01
8637;BME280;4356;49.068;8.658;2023-08-12T09:50:57;99955.50;;;28.30;41.68
8637;BME280;4356;49.068;8.658;2023-08-12T09:53:23;99971.50;;;28.38;41.71
8637;BME280;4356;49.068;8.658;2023-08-12T09:55:52;99958.56;;;28.29;41.47
8637;BME280;4356;49.068;8.658;2023-08-12T09:58:18;99961.88;;;28.31;41.59
8637;BME280;4356;49.068;8.658;2023-08-12T10:00:46;99960.75;;;28.37;41.59
8637;BME280;4356;49.068;8.658;2023-08-12T10:03:13;99956.59;;;28.34;41.34
8637;BME280;4356;49.068;8.658;2023-08-12T10:05:40;99958.19;;;28.46;41.41
8637;BME280;4356;49.068;8.658;2023-08-12T10:08:07;99937.50;;;28.38;41.50
8637;BME280;4356;49.068;8.658;2023-08-12T10:10:34;99936.13;;;28.40;41.45
8637;BME280;4356;49.068;8.658;2023-08-12T10:13:00;99952.63;;;28.51;41.25
8637;BME280;4356;49.068;8.658;2023-08-12T10:15:26;99959.22;;;28.60;41.13
8637;BME280;4356;49.068;8.658;2023-08-12T10:17:52;99947.66;;;28.53;41.29
8637;BME280;4356;49.068;8.658;2023-08-12T10:20:23;99957.34;;;28.55;41.53
8637;BME280;4356;49.068;8.658;2023-08-12T10:22:49;99964.47;;;28.66;41.22
8637;BME280;4356;49.068;8.658;2023-08-12T10:25:18;99963.03;;;28.69;41.13
8637;BME280;4356;49.068;8.658;2023-08-12T10:27:44;99944.00;;;28.62;41.57
8637;BME280;4356;49.068;8.658;2023-08-12T10:30:10;99973.22;;;28.78;41.73
8637;BME280;4356;49.068;8.658;2023-08-12T10:32:36;99952.50;;;28.71;41.80
8637;BME280;4356;49.068;8.658;2023-08-12T10:35:01;99973.69;;;28.85;41.77
8637;BME280;4356;49.068;8.658;2023-08-12T10:37:31;99944.47;;;28.74;41.54
8637;BME280;4356;49.068;8.658;2023-08-12T10:39:57;99941.41;;;28.76;41.53
8637;BME280;4356;49.068;8.658;2023-08-12T10:42:42;99974.16;;;28.97;41.24
8637;BME280;4356;49.068;8.658;2023-08-12T10:45:08;99973.59;;;29.00;40.95
8637;BME280;4356;49.068;8.658;2023-08-12T10:47:47;99974.94;;;29.03;41.38
8637;BME280;4356;49.068;8.658;2023-08-12T10:50:21;99971.59;;;29.06;40.89
8637;BME280;4356;49.068;8.658;2023-08-12T10:52:48;99960.22;;;29.12;41.17
8637;BME280;4356;49.068;8.658;2023-08-12T10:55:22;99966.28;;;29.14;41.14
8637;BME280;4356;49.068;8.658;2023-08-12T10:57:49;99973.69;;;29.19;40.95
8637;BME280;4356;49.068;8.658;2023-08-12T11:00:17;99978.09;;;29.25;41.23
8637;BME280;4356;49.068;8.658;2023-08-12T11:02:49;99990.53;;;29.27;40.81
8637;BME280;4356;49.068;8.658;2023-08-12T11:05:15;100003.47;;;29.32;40.83
8637;BME280;4356;49.068;8.658;2023-08-12T11:08:00;99996.31;;;29.31;41.07
8637;BME280;4356;49.068;8.658;2023-08-12T11:10:31;100011.16;;;29.40;40.80
8637;BME280;4356;49.068;8.658;2023-08-12T11:12:58;100002.34;;;29.38;40.34
8637;BME280;4356;49.068;8.658;2023-08-12T11:18:10;99990.59;;;29.46;40.56
8637;BME280;4356;49.068;8.658;2023-08-12T11:20:37;99972.94;;;29.42;40.33
8637;BME280;4356;49.068;8.658;2023-08-12T11:23:04;99970.66;;;29.49;40.58
8637;BME280;4356;49.068;8.658;2023-08-12T11:25:31;99941.72;;;29.36;40.61
8637;BME280;4356;49.068;8.658;2023-08-12T11:27:58;99940.88;;;29.36;40.88
8637;BME280;4356;49.068;8.658;2023-08-12T11:30:24;99957.09;;;29.48;40.76
8637;BME280;4356;49.068;8.658;2023-08-12T11:32:51;99949.91;;;29.47;40.85
8637;BME280;4356;49.068;8.658;2023-08-12T11:35:18;99957.69;;;29.45;40.77
8637;BME280;4356;49.068;8.658;2023-08-12T11:37:46;99952.50;;;29.38;40.61
8637;BME280;4356;49.068;8.658;2023-08-12T11:40:15;99954.72;;;29.36;40.89
8637;BME280;4356;49.068;8.658;2023-08-12T11:42:46;99954.72;;;29.36;41.11
8637;BME280;4356;49.068;8.658;2023-08-12T11:45:12;99964.88;;;29.46;41.07
8637;BME280;4356;49.068;8.658;2023-08-12T11:47:40;99968.44;;;29.46;40.95
8637;BME280;4356;49.068;8.658;2023-08-12T11:50:07;99978.72;;;29.46;41.17
8637;BME280;4356;49.068;8.658;2023-08-12T11:52:34;99962.13;;;29.40;40.78
8637;BME280;4356;49.068;8.658;2023-08-12T11:54:59;99958.03;;;29.38;40.84
8637;BME280;4356;49.068;8.658;2023-08-12T11:57:26;99972.13;;;29.42;40.81
8637;BME280;4356;49.068;8.658;2023-08-12T12:00:03;99988.34;;;29.53;41.28
8637;BME280;4356;49.068;8.658;2023-08-12T12:02:30;99994.69;;;29.54;41.03
8637;BME280;4356;49.068;8.658;2023-08-12T12:04:56;99989.97;;;29.54;40.78
8637;BME280;4356;49.068;8.658;2023-08-12T12:07:23;99980.06;;;29.48;41.47
8637;BME280;4356;49.068;8.658;2023-08-12T12:09:53;99959.66;;;29.39;41.44
8637;BME280;4356;49.068;8.658;2023-08-12T12:12:25;99991.91;;;29.54;41.29
8637;BME280;4356;49.068;8.658;2023-08-12T12:14:52;99977.59;;;29.47;41.42
8637;BME280;4356;49.068;8.658;2023-08-12T12:17:21;99989.38;;;29.57;41.17
8637;BME280;4356;49.068;8.658;2023-08-12T12:19:51;99982.25;;;29.51;41.53
8637;BME280;4356;49.068;8.658;2023-08-12T12:22:16;99980.84;;;29.54;41.26
8637;BME280;4356;49.068;8.658;2023-08-12T12:24:45;99974.28;;;29.45;41.65
8637;BME280;4356;49.068;8.658;2023-08-12T12:27:12;99998.22;;;29.59;41.59
8637;BME280;4356;49.068;8.658;2023-08-12T12:29:38;99980.31;;;29.52;41.53
8637;BME280;4356;49.068;8.658;2023-08-12T12:32:03;100006.25;;;29.61;41.70
8637;BME280;4356;49.068;8.658;2023-08-12T12:34:29;99994.66;;;29.59;41.18
8637;BME280;4356;49.068;8.658;2023-08-12T12:36:55;99971.19;;;29.51;41.39
8637;BME280;4356;49.068;8.658;2023-08-12T12:39:20;99979.75;;;29.55;41.33
8637;BME280;4356;49.068;8.658;2023-08-12T12:41:48;99975.00;;;29.55;41.45
8637;BME280;4356;49.068;8.658;2023-08-12T12:44:13;99983.81;;;29.62;41.42
8637;BME280;4356;49.068;8.658;2023-08-12T12:46:39;99961.75;;;29.52;41.53
8637;BME280;4356;49.068;8.658;2023-08-12T12:49:04;99962.00;;;29.56;41.39
8637;BME280;4356;49.068;8.658;2023-08-12T12:51:29;99981.31;;;29.61;41.30
8637;BME280;4356;49.068;8.658;2023-08-12T12:53:55;99965.28;;;29.58;41.03
8637;BME280;4356;49.068;8.658;2023-08-12T12:56:20;99956.69;;;29.59;41.10
8637;BME280;4356;49.068;8.658;2023-08-12T12:58:46;99969.44;;;29.60;41.59
8637;BME280;4356;49.068;8.658;2023-08-12T13:01:11;99974.88;;;29.70;41.44
8637;BME280;4356;49.068;8.658;2023-08-12T13:03:36;99969.88;;;29.72;41.61
8637;BME280;4356;49.068;8.658;2023-08-12T13:06:02;99980.88;;;29.77;41.50
8637;BME280;4356;49.068;8.658;2023-08-12T13:08:29;99969.91;;;29.67;41.06
8637;BME280;4356;49.068;8.658;2023-08-12T13:10:55;99989.50;;;29.76;41.04
8637;BME280;4356;49.068;8.658;2023-08-12T13:13:20;99989.19;;;29.77;41.30
8637;BME280;4356;49.068;8.658;2023-08-12T13:15:46;100000.47;;;29.86;41.00